Time;durP1;ratioP1;P1;durP2;ratioP2;P2;SDS_P1;SDS_P2;PMS_P1;PMS_P2;Temp;Humidity;BMP_temperature;BMP_pressure;BME280_temperature;BME280_humidity;BME280_pressure;Samples;Min_cycle;Max_cycle;Signal;HPM_P1;HPM_P2
2022/09/11 00:00:08;;;;;;;3.50;3.00;;;;;;;12.25;99.42;96251.58;107807;1270;27211;-77
2022/09/11 00:03:01;;;;;;;4.20;2.60;;;;;;;12.24;99.29;96251.16;107892;1270;23038;-77
2022/09/11 00:05:33;;;;;;;5.50;3.10;;;;;;;12.19;99.17;96250.04;107920;1271;22538;-77
2022/09/11 00:08:04;;;;;;;3.80;2.70;;;;;;;12.15;99.25;96251.07;107879;1270;25454;-76
2022/09/11 00:10:39;;;;;;;5.10;2.90;;;;;;;12.13;99.20;96253.95;107880;1271;27364;-76
2022/09/11 00:13:11;;;;;;;3.80;3.20;;;;;;;12.10;99.42;96253.13;107916;1271;25329;-77
2022/09/11 00:15:45;;;;;;;4.20;2.90;;;;;;;12.09;99.60;96249.33;107937;1270;22524;-77
2022/09/11 00:18:20;;;;;;;4.20;2.90;;;;;;;12.08;99.68;96245.47;107942;1271;22538;-77
2022/09/11 00:20:53;;;;;;;4.60;3.50;;;;;;;12.07;99.70;96244.06;107922;1270;22612;-77
2022/09/11 00:23:26;;;;;;;3.00;2.70;;;;;;;12.06;99.75;96239.29;107845;1270;22552;-77
2022/09/11 00:26:01;;;;;;;5.40;2.90;;;;;;;12.06;99.96;96238.13;107927;1270;22531;-77
2022/09/11 00:28:33;;;;;;;3.60;2.80;;;;;;;12.06;100.00;96235.64;107842;1270;38973;-76
2022/09/11 00:31:07;;;;;;;4.00;2.80;;;;;;;12.06;100.00;96234.40;107974;1271;23893;-77
2022/09/11 00:33:38;;;;;;;4.40;2.60;;;;;;;12.08;100.00;96225.81;107923;1270;24269;-76
2022/09/11 00:36:13;;;;;;;3.70;2.70;;;;;;;12.10;100.00;96223.64;107923;1270;22695;-77
2022/09/11 00:38:45;;;;;;;3.10;2.50;;;;;;;12.12;100.00;96220.33;107801;1270;29274;-77
2022/09/11 00:41:21;;;;;;;4.10;2.60;;;;;;;12.12;100.00;96218.20;107946;1271;22526;-77
2022/09/11 00:43:59;;;;;;;3.70;2.50;;;;;;;12.12;100.00;96221.34;107912;1270;24431;-77
2022/09/11 00:46:40;;;;;;;3.80;2.60;;;;;;;12.12;100.00;96220.22;107930;1270;25308;-77
2022/09/11 00:49:19;;;;;;;;;;;;;;;12.14;100.00;96220.23;107880;1270;23487;-77
2022/09/11 00:51:54;;;;;;;2.90;2.60;;;;;;;12.14;100.00;96220.48;107883;1270;22551;-76
2022/09/11 00:54:30;;;;;;;4.40;3.10;;;;;;;12.17;100.00;96223.56;107921;1270;24328;-76
2022/09/11 00:57:08;;;;;;;2.90;2.70;;;;;;;12.20;100.00;96221.99;107904;1270;22526;-77
2022/09/11 00:59:43;;;;;;;3.00;2.70;;;;;;;12.25;100.00;96221.17;107789;1269;24346;-76
2022/09/11 01:02:18;;;;;;;4.00;2.80;;;;;;;12.32;100.00;96222.19;107926;1270;23317;-76
2022/09/11 01:04:50;;;;;;;4.20;2.90;;;;;;;12.40;100.00;96222.48;107976;1268;25417;-76
2022/09/11 01:07:23;;;;;;;5.10;3.00;;;;;;;12.48;100.00;96220.39;107925;1270;22524;-76
2022/09/11 01:09:55;;;;;;;4.00;2.60;;;;;;;12.56;100.00;96222.21;107916;1268;25439;-76
2022/09/11 01:12:35;;;;;;;2.90;2.70;;;;;;;12.62;100.00;96219.44;107984;1268;22558;-76
2022/09/11 01:15:14;;;;;;;3.50;2.80;;;;;;;12.66;100.00;96217.08;107935;1270;22749;-76
2022/09/11 01:17:54;;;;;;;3.90;3.00;;;;;;;12.68;100.00;96220.39;107912;1270;22546;-76
2022/09/11 01:20:35;;;;;;;5.30;3.00;;;;;;;12.70;100.00;96218.74;107855;1270;34969;-76
2022/09/11 01:23:34;;;;;;;3.40;2.70;;;;;;;12.73;100.00;96213.16;107984;1268;25343;-76
2022/09/11 01:26:25;;;;;;;2.90;2.60;;;;;;;12.73;100.00;96206.34;107927;1270;22522;-76
2022/09/11 01:29:02;;;;;;;4.70;2.90;;;;;;;12.75;100.00;96204.53;107910;1267;28811;-76
2022/09/11 01:31:41;;;;;;;5.20;3.20;;;;;;;12.79;100.00;96202.46;107992;1268;22538;-77
2022/09/11 01:34:24;;;;;;;3.30;2.60;;;;;;;12.83;100.00;96203.83;108017;1268;22540;-76
2022/09/11 01:37:01;;;;;;;5.10;2.50;;;;;;;12.86;100.00;96201.94;107933;1270;22688;-76
2022/09/11 01:39:38;;;;;;;3.40;2.40;;;;;;;12.90;100.00;96201.73;107892;1268;31187;-76
2022/09/11 01:42:17;;;;;;;3.70;2.30;;;;;;;12.92;99.99;96201.96;107929;1270;22547;-77
2022/09/11 01:44:51;;;;;;;2.40;2.20;;;;;;;12.91;99.99;96199.67;107954;1270;22624;-77
2022/09/11 01:47:25;;;;;;;3.70;2.50;;;;;;;12.92;99.92;96198.86;107924;1270;25320;-77
2022/09/11 01:50:02;;;;;;;5.60;2.40;;;;;;;12.94;99.84;96196.42;107937;1268;27974;-76
2022/09/11 01:52:40;;;;;;;3.60;2.00;;;;;;;12.94;99.88;96198.38;107958;1268;25470;-77
2022/09/11 01:55:17;;;;;;;3.50;2.20;;;;;;;12.98;99.74;96195.44;107939;1268;25369;-77
2022/09/11 01:57:54;;;;;;;3.60;2.70;;;;;;;13.00;99.60;96202.72;107993;1268;25479;-77
2022/09/11 02:00:26;;;;;;;3.90;2.70;;;;;;;13.01;99.45;96201.37;107818;1270;28365;-77
2022/09/11 02:03:04;;;;;;;4.30;2.60;;;;;;;13.02;99.38;96203.67;107967;1270;22527;-77
2022/09/11 02:05:44;;;;;;;3.40;2.40;;;;;;;13.03;99.31;96199.66;107996;1268;24240;-76
2022/09/11 02:08:16;;;;;;;;;;;;;;;13.04;99.27;96204.59;108040;1268;22743;-77
2022/09/11 02:10:52;;;;;;;3.80;2.60;;;;;;;13.04;99.31;96201.29;107955;1270;22541;-76
2022/09/11 02:13:29;;;;;;;3.20;2.10;;;;;;;13.04;99.35;96200.02;107923;1270;22574;-77
2022/09/11 02:16:05;;;;;;;4.10;2.60;;;;;;;13.07;99.35;96204.44;107952;1270;23825;-77
2022/09/11 02:18:43;;;;;;;4.60;2.40;;;;;;;13.11;99.58;96203.85;107967;1268;31100;-76
2022/09/11 02:21:14;;;;;;;3.40;2.30;;;;;;;13.13;99.62;96204.24;107976;1270;22635;-77
2022/09/11 02:23:45;;;;;;;3.50;2.10;;;;;;;13.15;99.76;96205.81;107941;1270;22525;-77
2022/09/11 02:26:18;;;;;;;3.50;2.30;;;;;;;13.17;99.89;96210.83;107933;1270;25420;-77
2022/09/11 02:28:50;;;;;;;3.20;2.20;;;;;;;13.17;99.98;96208.70;107950;1268;35764;-76
2022/09/11 02:31:22;;;;;;;5.00;2.00;;;;;;;13.16;99.99;96212.02;107989;1268;22524;-77
2022/09/11 02:33:54;;;;;;;3.60;2.20;;;;;;;13.13;99.97;96209.72;107973;1270;22588;-77
2022/09/11 02:36:43;;;;;;;3.20;1.80;;;;;;;13.10;99.95;96207.17;108019;1268;22552;-77
2022/09/11 02:39:46;;;;;;;2.80;1.80;;;;;;;13.09;100.00;96207.20;107936;1268;30453;-76
2022/09/11 02:42:32;;;;;;;2.00;1.50;;;;;;;13.06;100.00;96204.52;107999;1268;22677;-77
2022/09/11 02:45:16;;;;;;;3.50;1.80;;;;;;;13.01;99.99;96201.63;107977;1270;22550;-77
2022/09/11 02:47:58;;;;;;;2.40;1.50;;;;;;;13.01;100.00;96200.94;107979;1270;22524;-77
2022/09/11 02:50:34;;;;;;;2.30;1.70;;;;;;;13.00;100.00;96198.90;107946;1268;34523;-77
2022/09/11 02:53:10;;;;;;;2.50;1.90;;;;;;;12.98;100.00;96201.77;107964;1270;24157;-77
2022/09/11 02:55:56;;;;;;;3.00;1.80;;;;;;;12.97;100.00;96198.45;108001;1268;22519;-77
2022/09/11 02:58:33;;;;;;;2.20;1.80;;;;;;;12.94;99.99;96194.49;107862;1269;32220;-77
2022/09/11 03:01:05;;;;;;;2.40;1.90;;;;;;;12.92;100.00;96195.23;108021;1268;22536;-77
2022/09/11 03:03:40;;;;;;;2.10;1.50;;;;;;;12.92;100.00;96190.13;107984;1268;24292;-78
2022/09/11 03:06:15;;;;;;;2.40;1.80;;;;;;;12.93;99.98;96186.69;107993;1267;22586;-77
2022/09/11 03:08:47;;;;;;;2.10;1.60;;;;;;;12.94;99.98;96187.85;107918;1270;29609;-77
2022/09/11 03:11:19;;;;;;;2.30;1.60;;;;;;;12.95;99.94;96193.21;107965;1270;26405;-77
2022/09/11 03:13:50;;;;;;;3.10;1.60;;;;;;;12.94;99.79;96191.27;107999;1268;22526;-77
2022/09/11 03:16:21;;;;;;;4.00;1.80;;;;;;;12.92;99.65;96200.02;108004;1268;24329;-77
2022/09/11 03:18:52;;;;;;;2.20;1.70;;;;;;;12.90;99.50;96196.09;107928;1268;33190;-77
2022/09/11 03:21:24;;;;;;;4.20;1.90;;;;;;;12.89;99.82;96200.23;107981;1269;22596;-77
2022/09/11 03:23:56;;;;;;;1.70;1.50;;;;;;;12.89;99.82;96202.23;107981;1270;24437;-77
2022/09/11 03:26:28;;;;;;;2.00;1.40;;;;;;;12.90;99.52;96201.95;107979;1270;25312;-77
2022/09/11 03:28:59;;;;;;;2.70;1.80;;;;;;;12.89;99.35;96198.88;107943;1268;29327;-77
2022/09/11 03:31:31;;;;;;;2.20;1.90;;;;;;;12.90;99.37;96201.30;107988;1268;22516;-77
2022/09/11 03:34:05;;;;;;;1.50;1.40;;;;;;;12.93;99.45;96202.07;107960;1270;23945;-77
2022/09/11 03:36:37;;;;;;;3.20;1.80;;;;;;;12.93;99.27;96201.06;108007;1268;22671;-77
2022/09/11 03:39:08;;;;;;;1.80;1.40;;;;;;;12.90;99.01;96202.95;107897;1270;32736;-77
2022/09/11 03:41:39;;;;;;;1.40;1.30;;;;;;;12.86;98.95;96205.25;108002;1268;22606;-77
2022/09/11 03:44:11;;;;;;;2.20;1.40;;;;;;;12.83;98.96;96207.92;107984;1270;22542;-77
2022/09/11 03:46:42;;;;;;;3.30;1.20;;;;;;;12.82;98.97;96208.17;108143;1268;24272;-77
2022/09/11 03:49:14;;;;;;;3.20;1.60;;;;;;;12.80;99.00;96204.41;108032;1270;25010;-77
2022/09/11 03:51:46;;;;;;;3.60;1.40;;;;;;;12.78;99.09;96205.08;108123;1270;22687;-77
2022/09/11 03:54:19;;;;;;;1.90;1.40;;;;;;;12.78;99.31;96208.05;108124;1268;25196;-77
2022/09/11 03:56:51;;;;;;;1.60;1.40;;;;;;;12.81;99.47;96204.52;108109;1270;22640;-77
2022/09/11 03:59:22;;;;;;;3.80;1.80;;;;;;;12.81;99.44;96206.63;108037;1270;44545;-77
2022/09/11 04:01:54;;;;;;;2.50;1.50;;;;;;;12.82;99.40;96203.23;108110;1268;24269;-77
2022/09/11 04:04:26;;;;;;;2.90;1.20;;;;;;;12.83;99.50;96207.23;108085;1270;22558;-77
2022/09/11 04:06:57;;;;;;;3.50;1.50;;;;;;;12.83;99.51;96203.52;108099;1268;22542;-77
2022/09/11 04:09:30;;;;;;;1.20;1.10;;;;;;;12.84;99.68;96204.61;108051;1268;35032;-77
2022/09/11 04:12:02;;;;;;;3.70;1.70;;;;;;;12.84;99.73;96201.14;108072;1270;22651;-77
2022/09/11 04:14:33;;;;;;;1.70;1.30;;;;;;;12.83;99.77;96200.84;108075;1270;22573;-77
2022/09/11 04:17:05;;;;;;;1.90;1.50;;;;;;;12.81;99.82;96197.48;108129;1268;24217;-77
2022/09/11 04:19:36;;;;;;;1.60;1.40;;;;;;;12.81;99.72;96191.90;108049;1270;26555;-78
2022/09/11 04:22:07;;;;;;;1.90;1.10;;;;;;;12.81;99.68;96194.83;108130;1268;24342;-77
2022/09/11 04:24:38;;;;;;;2.50;1.40;;;;;;;12.81;99.57;96195.25;108073;1269;22851;-77
2022/09/11 04:27:11;;;;;;;1.70;1.40;;;;;;;12.79;99.61;96193.04;108068;1270;22738;-77
2022/09/11 04:29:42;;;;;;;1.90;1.40;;;;;;;12.78;99.59;96195.45;108054;1268;26168;-77
2022/09/11 04:32:14;;;;;;;2.40;1.30;;;;;;;12.77;99.73;96192.34;108090;1268;22653;-77
2022/09/11 04:34:45;;;;;;;2.10;1.50;;;;;;;12.77;99.79;96191.77;108097;1269;22526;-77
2022/09/11 04:37:18;;;;;;;2.60;1.80;;;;;;;12.78;99.82;96192.06;108124;1267;22548;-77
2022/09/11 04:39:49;;;;;;;1.60;1.40;;;;;;;12.80;99.76;96192.65;108037;1268;27770;-77
2022/09/11 04:42:21;;;;;;;1.90;1.50;;;;;;;12.81;99.77;96189.29;108148;1268;26601;-78
2022/09/11 04:44:52;;;;;;;2.30;1.60;;;;;;;12.84;99.85;96194.54;108100;1268;25931;-77
2022/09/11 04:47:23;;;;;;;2.40;1.90;;;;;;;12.86;99.88;96192.19;108115;1268;25583;-77
2022/09/11 04:49:55;;;;;;;3.20;1.70;;;;;;;12.88;99.87;96192.68;108004;1270;28393;-77
2022/09/11 04:52:26;;;;;;;2.50;1.60;;;;;;;12.91;99.86;96192.98;108102;1268;22534;-77
2022/09/11 04:54:58;;;;;;;2.10;1.60;;;;;;;12.92;99.83;96194.98;108100;1267;22527;-77
2022/09/11 04:57:31;;;;;;;2.50;1.70;;;;;;;12.92;99.85;96195.45;108091;1269;22529;-77
2022/09/11 05:00:02;;;;;;;1.70;1.60;;;;;;;12.91;99.90;96195.26;108036;1270;31166;-77
2022/09/11 05:02:35;;;;;;;2.00;1.60;;;;;;;12.90;99.99;96195.60;108070;1270;23243;-77
2022/09/11 05:05:08;;;;;;;5.00;1.90;;;;;;;12.90;100.00;96197.63;108126;1268;25348;-77
2022/09/11 05:07:40;;;;;;;2.50;1.80;;;;;;;12.89;100.00;96197.22;108153;1265;22558;-77
2022/09/11 05:10:15;;;;;;;2.10;1.70;;;;;;;12.90;100.00;96196.50;108018;1268;26183;-77
2022/09/11 05:12:52;;;;;;;2.30;2.10;;;;;;;12.91;100.00;96191.97;108104;1268;22547;-77
2022/09/11 05:15:23;;;;;;;3.50;2.00;;;;;;;12.93;100.00;96193.39;108085;1270;22548;-77
2022/09/11 05:17:54;;;;;;;2.50;1.90;;;;;;;12.96;100.00;96192.65;108083;1270;23804;-77
2022/09/11 05:20:26;;;;;;;3.20;1.60;;;;;;;12.96;100.00;96198.88;107998;1270;29589;-78
2022/09/11 05:22:57;;;;;;;2.20;1.90;;;;;;;12.96;99.99;96202.50;108150;1268;22625;-77
2022/09/11 05:25:31;;;;;;;2.60;1.70;;;;;;;12.94;99.98;96204.83;108067;1270;22529;-77
2022/09/11 05:28:03;;;;;;;2.10;1.60;;;;;;;12.93;100.00;96205.97;108131;1268;22526;-78
2022/09/11 05:30:34;;;;;;;2.50;1.90;;;;;;;12.92;99.99;96209.66;108034;1268;31477;-77
2022/09/11 05:33:06;;;;;;;2.90;1.80;;;;;;;12.92;100.00;96212.22;108094;1269;24386;-77
2022/09/11 05:35:37;;;;;;;2.70;1.90;;;;;;;12.92;99.99;96208.34;108120;1268;22522;-77
2022/09/11 05:38:10;;;;;;;2.60;1.60;;;;;;;12.93;100.00;96211.23;108082;1270;22636;-77
2022/09/11 05:40:47;;;;;;;2.80;1.80;;;;;;;12.94;100.00;96212.75;108053;1268;25009;-77
2022/09/11 05:43:18;;;;;;;2.00;1.80;;;;;;;12.96;100.00;96211.59;108102;1270;22552;-77
2022/09/11 05:45:57;;;;;;;2.40;1.80;;;;;;;12.96;99.92;96208.59;108099;1270;22548;-77
2022/09/11 05:48:31;;;;;;;2.40;1.50;;;;;;;12.95;99.96;96210.08;108052;1268;27285;-77
2022/09/11 05:51:07;;;;;;;2.80;1.50;;;;;;;12.94;100.00;96212.80;108086;1270;22576;-78
2022/09/11 05:53:41;;;;;;;2.70;1.70;;;;;;;12.95;100.00;96204.48;108124;1270;22705;-77
2022/09/11 05:56:16;;;;;;;1.50;1.40;;;;;;;12.94;100.00;96206.11;108115;1268;22523;-78
2022/09/11 05:58:50;;;;;;;3.60;2.10;;;;;;;12.90;100.00;96207.15;108051;1270;25808;-77
2022/09/11 06:01:23;;;;;;;3.30;2.00;;;;;;;12.88;100.00;96204.88;108151;1268;22532;-78
2022/09/11 06:03:55;;;;;;;1.80;1.60;;;;;;;12.88;100.00;96204.35;108099;1268;22524;-77
2022/09/11 06:06:28;;;;;;;2.30;1.80;;;;;;;12.89;100.00;96205.48;108083;1269;23865;-77
2022/09/11 06:08:59;;;;;;;2.40;2.10;;;;;;;12.90;100.00;96209.93;108058;1268;26630;-78
2022/09/11 06:11:33;;;;;;;3.60;2.00;;;;;;;12.92;100.00;96211.70;108120;1268;22536;-77
2022/09/11 06:14:05;;;;;;;2.60;2.00;;;;;;;12.96;100.00;96208.57;108135;1268;22532;-77
2022/09/11 06:16:37;;;;;;;3.50;1.80;;;;;;;12.98;100.00;96209.91;108100;1270;23958;-77
2022/09/11 06:19:09;;;;;;;3.00;2.20;;;;;;;13.01;100.00;96204.58;108007;1269;37178;-77
2022/09/11 06:21:41;;;;;;;2.50;1.80;;;;;;;13.01;100.00;96208.11;108092;1270;22529;-77
2022/09/11 06:24:15;;;;;;;2.10;1.90;;;;;;;13.02;100.00;96208.79;108138;1268;22571;-78
2022/09/11 06:26:46;;;;;;;3.20;1.90;;;;;;;12.97;100.00;96209.02;108109;1270;22538;-78
2022/09/11 06:29:18;;;;;;;2.40;2.00;;;;;;;12.94;100.00;96212.95;108068;1268;26380;-78
2022/09/11 06:31:50;;;;;;;3.00;2.40;;;;;;;12.94;100.00;96215.46;108122;1268;24224;-77
2022/09/11 06:34:22;;;;;;;2.00;1.80;;;;;;;12.97;100.00;96211.91;108083;1270;24674;-78
2022/09/11 06:36:54;;;;;;;3.00;1.90;;;;;;;12.99;100.00;96204.94;108093;1269;22557;-77
2022/09/11 06:39:26;;;;;;;2.70;2.00;;;;;;;13.00;100.00;96206.73;106576;1268;2006365;-77
2022/09/11 06:41:58;;;;;;;2.80;2.10;;;;;;;13.02;100.00;96210.48;108108;1270;22551;-78
2022/09/11 06:44:30;;;;;;;2.40;2.00;;;;;;;13.02;100.00;96209.05;108097;1268;24254;-77
2022/09/11 06:47:02;;;;;;;3.10;2.50;;;;;;;13.01;100.00;96212.55;108072;1268;23878;-77
2022/09/11 06:49:34;;;;;;;5.90;4.30;;;;;;;13.02;100.00;96215.88;108029;1270;23621;-77
2022/09/11 06:52:05;;;;;;;2.60;1.90;;;;;;;13.10;100.00;96219.00;108131;1268;26699;-78
2022/09/11 06:54:37;;;;;;;2.10;1.90;;;;;;;13.13;100.00;96218.33;108131;1268;22545;-78
2022/09/11 06:57:08;;;;;;;4.20;2.20;;;;;;;13.14;100.00;96220.22;108088;1267;22561;-78
2022/09/11 06:59:39;;;;;;;1.80;1.70;;;;;;;13.15;100.00;96218.44;108048;1268;31659;-78
2022/09/11 07:02:13;;;;;;;2.10;1.80;;;;;;;13.13;100.00;96221.52;108111;1267;25216;-78
2022/09/11 07:04:46;;;;;;;2.90;1.70;;;;;;;13.09;100.00;96219.38;108086;1270;22575;-77
2022/09/11 07:07:17;;;;;;;2.00;1.50;;;;;;;13.11;100.00;96223.86;108094;1270;25253;-78
2022/09/11 07:09:49;;;;;;;1.70;1.40;;;;;;;13.08;100.00;96223.80;108048;1268;27074;-77
2022/09/11 07:12:22;;;;;;;1.60;1.40;;;;;;;13.08;100.00;96222.95;106923;1269;1601544;-78
2022/09/11 07:14:54;;;;;;;1.60;1.50;;;;;;;13.10;100.00;96220.69;108104;1268;22624;-77
2022/09/11 07:17:25;;;;;;;2.20;1.70;;;;;;;13.12;100.00;96216.39;108088;1270;22889;-78
2022/09/11 07:19:56;;;;;;;1.40;1.10;;;;;;;13.11;100.00;96213.69;108051;1269;27296;-77
2022/09/11 07:22:29;;;;;;;1.30;1.20;;;;;;;13.13;100.00;96211.63;108088;1269;22531;-77
2022/09/11 07:25:01;;;;;;;3.80;1.40;;;;;;;13.15;100.00;96207.94;108083;1270;24078;-77
2022/09/11 07:27:34;;;;;;;1.60;1.10;;;;;;;13.21;100.00;96211.54;108125;1270;22548;-78
2022/09/11 07:30:08;;;;;;;1.30;0.90;;;;;;;13.24;100.00;96214.14;108084;1268;26296;-78
2022/09/11 07:32:40;;;;;;;1.10;0.80;;;;;;;13.27;100.00;96214.54;108107;1268;22563;-78
2022/09/11 07:35:11;;;;;;;1.50;1.30;;;;;;;13.26;100.00;96212.40;108109;1269;22692;-78
2022/09/11 07:37:43;;;;;;;2.00;1.40;;;;;;;13.31;100.00;96212.64;108080;1270;24249;-78
2022/09/11 07:40:15;;;;;;;1.80;1.70;;;;;;;13.35;100.00;96213.69;108027;1268;29004;-78
2022/09/11 07:42:47;;;;;;;3.10;2.50;;;;;;;13.40;100.00;96210.25;108081;1268;22629;-78
2022/09/11 07:45:18;;;;;;;2.40;2.20;;;;;;;13.44;100.00;96208.89;108071;1270;22542;-78
2022/09/11 07:47:50;;;;;;;2.80;2.50;;;;;;;13.58;100.00;96206.35;108104;1269;22559;-78
2022/09/11 07:50:23;;;;;;;3.50;2.70;;;;;;;13.77;100.00;96207.73;107997;1270;26175;-78
2022/09/11 07:52:55;;;;;;;4.00;3.60;;;;;;;13.71;100.00;96208.66;108102;1268;22625;-78
2022/09/11 07:55:26;;;;;;;4.10;3.10;;;;;;;13.60;100.00;96209.64;108072;1270;22811;-78
2022/09/11 07:57:58;;;;;;;4.80;3.10;;;;;;;13.53;100.00;96213.80;108065;1270;22535;-78
2022/09/11 08:00:30;;;;;;;3.60;3.30;;;;;;;13.49;100.00;96213.76;108072;1268;26483;-78
2022/09/11 08:03:02;;;;;;;4.00;3.60;;;;;;;13.56;100.00;96211.82;108056;1270;22538;-77
2022/09/11 08:05:35;;;;;;;3.70;3.20;;;;;;;13.71;100.00;96217.81;108125;1268;24409;-78
2022/09/11 08:08:06;;;;;;;3.70;3.30;;;;;;;13.95;100.00;96216.91;108104;1268;23914;-78
2022/09/11 08:10:39;;;;;;;3.10;2.80;;;;;;;14.33;100.00;96213.92;108026;1270;24581;-78
2022/09/11 08:13:11;;;;;;;4.40;3.10;;;;;;;14.53;100.00;96215.01;108104;1268;22531;-78
2022/09/11 08:15:49;;;;;;;3.20;2.90;;;;;;;14.80;99.68;96212.73;108121;1268;23047;-78
2022/09/11 08:18:20;;;;;;;4.00;2.70;;;;;;;14.65;97.74;96212.35;108020;1270;33764;-78
2022/09/11 08:20:53;;;;;;;6.40;2.90;;;;;;;14.51;97.57;96214.80;108072;1270;26574;-78
2022/09/11 08:23:26;;;;;;;5.00;3.30;;;;;;;14.47;97.22;96210.70;108134;1268;22574;-78
2022/09/11 08:26:04;;;;;;;3.40;3.10;;;;;;;14.45;97.42;96209.00;108096;1270;22555;-78
2022/09/11 08:28:37;;;;;;;3.60;3.10;;;;;;;14.46;97.51;96212.58;108034;1268;30650;-78
2022/09/11 08:31:10;;;;;;;3.40;3.00;;;;;;;14.46;97.41;96209.53;108076;1270;23247;-78
2022/09/11 08:33:41;;;;;;;3.50;3.20;;;;;;;14.54;97.60;96211.48;108086;1269;24234;-78
2022/09/11 08:36:14;;;;;;;3.20;2.90;;;;;;;14.73;98.10;96209.20;108087;1270;22639;-78
2022/09/11 08:38:46;;;;;;;4.00;3.10;;;;;;;14.88;97.45;96210.34;108055;1268;29120;-78
2022/09/11 08:41:32;;;;;;;7.00;3.20;;;;;;;15.16;97.32;96207.65;108061;1268;22538;-78
2022/09/11 08:44:14;;;;;;;3.50;2.70;;;;;;;15.16;95.32;96207.69;108134;1268;22567;-78
2022/09/11 08:46:49;;;;;;;2.80;2.60;;;;;;;15.24;95.26;96207.34;108095;1268;23153;-78
2022/09/11 08:49:27;;;;;;;3.60;3.30;;;;;;;15.50;94.51;96205.14;108003;1270;29209;-78
2022/09/11 08:52:02;;;;;;;4.20;2.30;;;;;;;15.61;94.24;96206.48;108119;1267;22651;-78
2022/09/11 08:54:36;;;;;;;4.30;2.60;;;;;;;15.58;92.64;96205.35;108086;1270;24187;-78
2022/09/11 08:57:21;;;;;;;3.80;2.70;;;;;;;15.20;90.61;96204.36;108119;1270;22541;-78
2022/09/11 09:00:14;;;;;;;3.50;3.20;;;;;;;14.84;91.58;96209.09;107989;1270;37762;-78
2022/09/11 09:03:07;;;;;;;3.90;3.00;;;;;;;14.63;92.39;96216.30;108080;1270;23694;-79
2022/09/11 09:05:48;;;;;;;2.80;2.60;;;;;;;14.42;92.65;96222.83;108061;1270;22533;-79
2022/09/11 09:08:36;;;;;;;2.60;2.20;;;;;;;14.28;92.98;96224.67;108011;1270;41973;-77
2022/09/11 09:11:19;;;;;;;2.80;2.60;;;;;;;14.19;93.96;96228.90;108091;1270;22539;-78
2022/09/11 09:14:05;;;;;;;3.40;3.10;;;;;;;14.25;95.23;96227.20;108079;1270;26843;-78
2022/09/11 09:16:52;;;;;;;3.10;2.80;;;;;;;14.51;96.20;96221.24;108115;1267;24225;-78
2022/09/11 09:19:29;;;;;;;4.40;4.00;;;;;;;14.83;96.32;96221.15;108031;1269;30002;-78
2022/09/11 09:22:09;;;;;;;4.30;3.20;;;;;;;15.27;96.43;96223.20;108109;1268;22548;-78
2022/09/11 09:24:47;;;;;;;3.90;2.80;;;;;;;15.72;95.51;96220.29;108070;1270;22546;-78
2022/09/11 09:27:23;;;;;;;3.50;2.40;;;;;;;15.73;93.50;96219.70;108086;1269;23875;-78
2022/09/11 09:29:59;;;;;;;4.40;2.20;;;;;;;15.88;93.86;96221.22;108045;1268;28553;-77
2022/09/11 09:32:37;;;;;;;3.20;2.10;;;;;;;16.00;92.60;96218.45;108075;1270;22568;-77
2022/09/11 09:35:17;;;;;;;9.70;2.40;;;;;;;16.02;90.76;96215.67;108066;1270;24236;-77
2022/09/11 09:37:48;;;;;;;2.30;1.70;;;;;;;15.93;89.79;96209.98;108046;1270;22644;-78
2022/09/11 09:40:24;;;;;;;2.50;2.10;;;;;;;15.94;89.76;96210.73;108034;1268;28787;-78
2022/09/11 09:43:21;;;;;;;2.10;1.80;;;;;;;16.12;89.39;96212.24;108108;1270;22538;-77
2022/09/11 09:46:08;;;;;;;2.50;1.90;;;;;;;16.62;90.40;96210.20;108121;1269;22553;-78
2022/09/11 09:48:43;;;;;;;2.30;1.60;;;;;;;17.06;89.41;96214.55;108026;1270;28427;-77
2022/09/11 09:51:17;;;;;;;1.00;0.80;;;;;;;16.97;84.73;96221.48;108080;1270;26401;-78
2022/09/11 09:53:54;;;;;;;1.20;1.00;;;;;;;16.37;82.06;96222.97;108112;1270;22621;-78
2022/09/11 09:56:29;;;;;;;1.00;1.00;;;;;;;15.89;81.56;96220.52;108075;1270;22552;-78
2022/09/11 09:59:14;;;;;;;3.40;1.00;;;;;;;15.59;82.12;96226.06;108010;1270;28451;-77
2022/09/11 10:01:48;;;;;;;0.90;0.60;;;;;;;15.47;82.07;96230.50;108146;1268;22556;-78
2022/09/11 10:04:25;;;;;;;1.20;0.80;;;;;;;15.38;81.12;96227.64;108117;1266;23151;-78
2022/09/11 10:07:10;;;;;;;2.80;0.80;;;;;;;15.34;81.57;96233.90;108035;1270;22557;-78
2022/09/11 10:09:47;;;;;;;1.60;1.10;;;;;;;15.46;82.67;96233.41;108091;1268;35791;-77
2022/09/11 10:12:25;;;;;;;1.80;1.30;;;;;;;15.58;82.86;96236.13;108136;1269;22554;-78
2022/09/11 10:15:00;;;;;;;1.70;0.90;;;;;;;15.71;82.73;96237.29;108108;1267;22548;-78
2022/09/11 10:17:38;;;;;;;1.00;0.90;;;;;;;15.48;81.86;96236.29;108100;1270;22873;-78
2022/09/11 10:20:30;;;;;;;1.20;1.00;;;;;;;15.24;82.18;96232.26;108028;1269;38386;-78
2022/09/11 10:23:24;;;;;;;2.00;1.30;;;;;;;15.10;83.12;96232.02;108066;1268;25366;-77
2022/09/11 10:25:57;;;;;;;1.80;1.30;;;;;;;14.93;83.61;96233.73;108114;1270;22532;-78
2022/09/11 10:28:33;;;;;;;3.90;3.00;;;;;;;14.80;84.36;96234.20;108031;1270;29369;-78
2022/09/11 10:31:07;;;;;;;2.00;1.70;;;;;;;14.73;85.39;96238.18;108083;1270;22551;-78
2022/09/11 10:33:41;;;;;;;1.60;1.50;;;;;;;14.63;85.93;96246.96;108128;1270;22546;-78
2022/09/11 10:36:21;;;;;;;1.90;1.40;;;;;;;14.47;86.76;96245.31;108052;1270;22549;-78
2022/09/11 10:38:55;;;;;;;2.70;1.60;;;;;;;14.32;87.70;96242.21;108036;1270;26401;-77
2022/09/11 10:41:31;;;;;;;2.80;2.30;;;;;;;14.20;88.53;96248.35;108136;1270;22532;-78
2022/09/11 10:44:04;;;;;;;2.70;1.70;;;;;;;14.24;89.80;96246.59;108111;1270;23266;-78
2022/09/11 10:46:37;;;;;;;2.80;2.50;;;;;;;14.35;90.41;96246.17;108074;1268;25707;-78
2022/09/11 10:49:25;;;;;;;3.10;1.90;;;;;;;14.48;90.12;96245.35;108063;1268;24522;-77
2022/09/11 10:52:17;;;;;;;2.50;2.30;;;;;;;14.58;90.46;96243.51;108115;1268;22555;-78
2022/09/11 10:55:00;;;;;;;3.20;2.80;;;;;;;14.62;90.64;96236.51;108099;1268;22552;-78
2022/09/11 10:57:42;;;;;;;2.50;2.30;;;;;;;14.66;91.04;96243.80;108079;1268;22555;-77
2022/09/11 11:00:19;;;;;;;3.00;2.70;;;;;;;14.74;90.87;96236.67;108040;1270;27155;-78
2022/09/11 11:02:56;;;;;;;3.70;3.10;;;;;;;14.82;91.45;96238.66;108118;1268;22552;-78
2022/09/11 11:05:36;;;;;;;3.00;2.60;;;;;;;14.93;90.96;96236.06;108154;1269;22526;-78
2022/09/11 11:08:27;;;;;;;2.70;2.40;;;;;;;14.88;90.15;96233.86;108146;1269;24027;-79
2022/09/11 11:11:13;;;;;;;2.80;2.60;;;;;;;14.74;89.48;96236.87;108093;1270;22485;-78
2022/09/11 11:14:03;;;;;;;4.90;2.80;;;;;;;14.64;89.77;96241.94;108095;1270;26559;-78
2022/09/11 11:16:46;;;;;;;3.90;3.00;;;;;;;14.51;90.01;96243.17;108095;1270;24988;-78
2022/09/11 11:19:40;;;;;;;3.70;2.90;;;;;;;14.48;90.30;96248.26;107982;1270;34799;-78
2022/09/11 11:22:22;;;;;;;3.30;3.10;;;;;;;14.47;90.33;96242.77;108114;1268;22518;-78
2022/09/11 11:25:05;;;;;;;3.90;3.00;;;;;;;14.56;90.73;96245.48;108098;1268;22559;-78
2022/09/11 11:28:05;;;;;;;4.00;3.00;;;;;;;14.73;90.99;96246.79;108084;1270;26411;-77
2022/09/11 11:30:43;;;;;;;3.70;3.00;;;;;;;14.93;90.49;96246.92;108038;1268;40290;-78
2022/09/11 11:33:34;;;;;;;3.40;3.00;;;;;;;15.04;90.00;96248.64;108095;1270;22561;-78
2022/09/11 11:36:14;;;;;;;3.30;2.90;;;;;;;15.15;89.27;96245.11;108067;1270;22548;-78
2022/09/11 11:38:51;;;;;;;3.60;3.20;;;;;;;15.17;88.59;96242.25;108004;1270;36062;-77
2022/09/11 11:41:30;;;;;;;3.50;2.70;;;;;;;15.24;88.50;96246.34;108094;1268;25297;-78
2022/09/11 11:44:07;;;;;;;4.70;3.20;;;;;;;15.28;88.26;96242.48;108101;1270;22552;-78
2022/09/11 11:46:44;;;;;;;3.00;2.70;;;;;;;15.33;87.73;96239.44;108106;1268;24027;-78
2022/09/11 11:49:25;;;;;;;3.40;3.10;;;;;;;15.29;87.30;96252.39;108081;1268;27341;-78
2022/09/11 11:52:04;;;;;;;3.60;3.20;;;;;;;15.27;87.52;96255.78;108142;1268;24980;-80
2022/09/11 11:54:42;;;;;;;3.90;3.20;;;;;;;15.24;87.91;96254.83;108096;1268;25559;-78
2022/09/11 11:57:19;;;;;;;3.90;3.30;;;;;;;15.24;87.75;96257.27;108086;1270;22538;-78
2022/09/11 11:59:59;;;;;;;4.70;3.80;;;;;;;15.22;87.19;96253.07;107970;1270;39891;-78